createdAt,value
2022-11-26T00:02:17.803Z,0.29
2022-11-26T00:04:47.635Z,0.24
2022-11-26T00:07:17.782Z,0.17
2022-11-26T00:09:46.218Z,0.13
2022-11-26T00:12:17.177Z,0.17
2022-11-26T00:14:46.233Z,0.13
2022-11-26T00:17:14.902Z,0.10
2022-11-26T00:19:44.362Z,0.06
2022-11-26T00:22:23.263Z,0.11
2022-11-26T00:24:51.930Z,0.14
2022-11-26T00:27:20.493Z,0.09
2022-11-26T00:29:48.721Z,0.04
2022-11-26T00:32:18.765Z,-0.03
2022-11-26T00:34:47.049Z,-0.09
2022-11-26T00:37:20.445Z,-0.15
2022-11-26T00:39:48.827Z,0.01
2022-11-26T00:42:17.106Z,-0.05
2022-11-26T00:44:45.728Z,-0.14
2022-11-26T00:47:14.026Z,-0.19
2022-11-26T00:49:43.310Z,-0.17
2022-11-26T00:52:27.371Z,-0.16
2022-11-26T00:54:55.770Z,-0.20
2022-11-26T00:57:24.087Z,0.01
2022-11-26T00:59:52.417Z,0.17
2022-11-26T01:02:20.707Z,0.04
2022-11-26T01:04:49.124Z,-0.13
2022-11-26T01:07:17.440Z,-0.17
2022-11-26T01:09:47.988Z,-0.21
2022-11-26T01:12:17.545Z,-0.07
2022-11-26T01:14:45.848Z,-0.07
2022-11-26T01:17:14.164Z,-0.10
2022-11-26T01:19:42.409Z,-0.18
2022-11-26T01:22:21.476Z,-0.18
2022-11-26T01:24:51.440Z,-0.19
2022-11-26T01:27:21.535Z,-0.03
2022-11-26T01:29:49.817Z,-0.18
2022-11-26T01:32:18.091Z,0.01
2022-11-26T01:34:46.318Z,-0.17
2022-11-26T01:37:15.294Z,-0.04
2022-11-26T01:39:43.638Z,-0.07
2022-11-26T01:42:24.334Z,-0.20
2022-11-26T01:44:52.683Z,-0.03
2022-11-26T01:47:23.229Z,0.05
2022-11-26T01:50:28.811Z,-0.04
2022-11-26T01:52:58.321Z,-0.02
2022-11-26T01:55:27.508Z,0.22
2022-11-26T01:57:57.595Z,0.13
2022-11-26T02:00:25.849Z,-0.02
2022-11-26T02:02:54.235Z,0.11
2022-11-26T02:05:24.767Z,0.06
2022-11-26T02:07:54.321Z,0.11
2022-11-26T02:10:22.634Z,0.03
2022-11-26T02:12:51.492Z,-0.01
2022-11-26T02:15:21.407Z,-0.20
2022-11-26T02:17:51.372Z,-0.26
2022-11-26T02:20:42.820Z,-0.31
2022-11-26T02:23:53.410Z,-0.34
2022-11-26T02:26:49.568Z,-0.16
2022-11-26T02:29:27.188Z,-0.18
2022-11-26T02:32:01.272Z,-0.32
2022-11-26T02:34:38.007Z,-0.26
2022-11-26T02:37:10.053Z,-0.35
2022-11-26T02:39:38.347Z,-0.38
2022-11-26T02:42:24.701Z,-0.45
2022-11-26T02:44:53.549Z,-0.44
2022-11-26T02:47:24.286Z,-0.36
2022-11-26T02:49:53.110Z,-0.30
2022-11-26T02:52:22.985Z,-0.21
2022-11-26T02:54:52.325Z,-0.16
2022-11-26T02:57:22.474Z,-0.17
2022-11-26T02:59:50.940Z,-0.15
2022-11-26T03:02:25.993Z,-0.09
2022-11-26T03:04:57.430Z,0.05
2022-11-26T03:07:26.948Z,0.17
2022-11-26T03:09:58.067Z,0.32
2022-11-26T03:12:26.898Z,0.20
2022-11-26T03:14:55.320Z,0.15
2022-11-26T03:17:24.951Z,0.16
2022-11-26T03:19:53.528Z,0.31
2022-11-26T03:22:21.969Z,0.50
2022-11-26T03:24:50.450Z,0.44
2022-11-26T03:27:18.714Z,0.44
2022-11-26T03:29:46.990Z,0.41
2022-11-26T03:32:15.265Z,0.51
2022-11-26T03:34:44.883Z,0.77
2022-11-26T03:37:13.343Z,0.79
2022-11-26T03:39:41.796Z,0.77
2022-11-26T03:42:10.097Z,0.75
2022-11-26T03:44:38.773Z,0.73
2022-11-26T03:47:07.263Z,0.63
2022-11-26T03:49:35.652Z,0.63
2022-11-26T03:52:05.553Z,0.69
2022-11-26T03:54:33.828Z,0.66
2022-11-26T03:57:02.161Z,0.66
2022-11-26T03:59:30.566Z,0.69
2022-11-26T04:01:59.361Z,0.72
2022-11-26T04:04:28.342Z,1.99
2022-11-26T04:06:57.312Z,1.75
2022-11-26T04:09:27.098Z,1.15
2022-11-26T04:11:55.327Z,1.12
2022-11-26T04:14:23.628Z,1.05
2022-11-26T04:16:51.870Z,1.12
2022-11-26T04:19:20.146Z,1.04
2022-11-26T04:21:48.380Z,1.01
2022-11-26T04:24:16.650Z,1.06
2022-11-26T04:26:46.344Z,1.02
2022-11-26T04:29:14.741Z,1.11
2022-11-26T04:31:43.041Z,1.39
2022-11-26T04:34:11.396Z,1.56
2022-11-26T04:36:40.397Z,1.30
2022-11-26T04:39:08.648Z,1.23
2022-11-26T04:41:37.476Z,1.13
2022-11-26T04:44:07.888Z,1.13
2022-11-26T04:46:36.225Z,1.14
2022-11-26T04:49:04.523Z,1.16
2022-11-26T04:51:32.924Z,1.14
2022-11-26T04:54:03.146Z,1.14
2022-11-26T04:56:32.598Z,1.13
2022-11-26T04:59:00.938Z,1.06
2022-11-26T05:01:30.749Z,1.01
2022-11-26T05:03:59.619Z,0.89
2022-11-26T05:06:28.716Z,0.86
2022-11-26T05:08:57.171Z,0.88
2022-11-26T05:11:25.450Z,0.86
2022-11-26T05:13:53.704Z,0.84
2022-11-26T05:16:23.046Z,0.82
2022-11-26T05:18:52.889Z,0.84
2022-11-26T05:21:21.157Z,0.77
2022-11-26T05:23:49.513Z,0.57
2022-11-26T05:26:18.225Z,0.52
2022-11-26T05:28:49.169Z,0.54
2022-11-26T05:31:17.840Z,0.61
2022-11-26T05:33:46.161Z,0.61
2022-11-26T05:36:15.870Z,0.63
2022-11-26T05:38:44.468Z,0.59
2022-11-26T05:41:12.794Z,0.60
2022-11-26T05:43:41.528Z,0.64
2022-11-26T05:46:10.957Z,0.65
2022-11-26T05:48:39.404Z,0.64
2022-11-26T05:51:08.822Z,0.64
2022-11-26T05:53:38.981Z,0.65
2022-11-26T05:56:07.674Z,0.63
2022-11-26T05:58:38.421Z,0.71
2022-11-26T06:01:09.524Z,0.79
2022-11-26T06:03:38.583Z,0.80
2022-11-26T06:06:07.351Z,0.80
2022-11-26T06:08:35.803Z,0.78
2022-11-26T06:11:05.572Z,0.78
2022-11-26T06:13:34.094Z,0.84
2022-11-26T06:16:02.482Z,0.82
2022-11-26T06:18:31.084Z,0.80
2022-11-26T06:21:01.303Z,0.79
2022-11-26T06:23:29.586Z,0.80
2022-11-26T06:25:57.885Z,0.82
2022-11-26T06:28:28.044Z,0.81
2022-11-26T06:30:56.399Z,0.88
2022-11-26T06:33:24.731Z,0.99
2022-11-26T06:35:53.170Z,0.83
2022-11-26T06:38:21.456Z,0.83
2022-11-26T06:40:49.780Z,0.89
2022-11-26T06:43:18.067Z,1.00
2022-11-26T06:45:47.685Z,1.10
2022-11-26T06:48:15.970Z,1.13
2022-11-26T06:50:44.305Z,1.19
2022-11-26T06:53:13.072Z,1.88
2022-11-26T06:55:41.337Z,1.56
2022-11-26T06:58:09.660Z,1.43
2022-11-26T07:00:38.359Z,1.41
2022-11-26T07:03:08.074Z,1.46
2022-11-26T07:05:36.781Z,1.57
2022-11-26T07:08:05.493Z,1.69
2022-11-26T07:10:34.036Z,1.74
2022-11-26T07:13:02.296Z,1.51
2022-11-26T07:15:30.659Z,1.65
2022-11-26T07:17:59.879Z,1.72
2022-11-26T07:20:30.080Z,1.72
2022-11-26T07:22:58.388Z,1.84
2022-11-26T07:25:26.603Z,1.93
2022-11-26T07:27:54.831Z,2.07
2022-11-26T07:30:23.258Z,2.19
2022-11-26T07:32:51.576Z,2.33
2022-11-26T07:35:19.880Z,2.43
2022-11-26T07:37:49.631Z,2.53
2022-11-26T07:40:18.102Z,2.61
2022-11-26T07:42:51.782Z,2.56
2022-11-26T07:45:25.795Z,2.61
2022-11-26T07:47:54.152Z,2.61
2022-11-26T07:50:22.473Z,2.69
2022-11-26T07:52:54.344Z,2.80
2022-11-26T07:55:22.854Z,2.96
2022-11-26T07:57:51.135Z,3.13
2022-11-26T08:00:20.469Z,3.17
2022-11-26T08:02:48.837Z,3.31
2022-11-26T08:05:17.531Z,3.55
2022-11-26T08:07:45.940Z,3.49
2022-11-26T08:10:15.918Z,3.48
2022-11-26T08:12:45.496Z,3.64
2022-11-26T08:15:13.802Z,3.76
2022-11-26T08:17:42.136Z,3.96
2022-11-26T08:20:11.421Z,3.85
2022-11-26T08:22:39.737Z,4.11
2022-11-26T08:25:09.588Z,4.02
2022-11-26T08:27:39.906Z,4.29
2022-11-26T08:30:09.416Z,4.54
2022-11-26T08:32:38.261Z,4.72
2022-11-26T08:35:07.089Z,4.97
2022-11-26T08:37:36.707Z,5.04
2022-11-26T08:40:05.990Z,4.98
2022-11-26T08:42:34.355Z,5.22
2022-11-26T08:45:04.217Z,5.26
2022-11-26T08:47:32.536Z,5.29
2022-11-26T08:50:00.845Z,5.37
2022-11-26T08:52:29.169Z,5.37
2022-11-26T08:54:57.490Z,5.46
2022-11-26T08:57:25.846Z,5.61
2022-11-26T08:59:55.168Z,5.76
2022-11-26T09:02:24.919Z,5.75
2022-11-26T09:04:53.444Z,5.66
2022-11-26T09:07:22.009Z,5.84
2022-11-26T09:09:50.360Z,6.01
2022-11-26T09:12:18.711Z,6.07
2022-11-26T09:14:48.033Z,6.20
2022-11-26T09:17:16.871Z,6.46
2022-11-26T09:19:46.581Z,6.80
2022-11-26T09:22:14.870Z,6.96
2022-11-26T09:24:43.204Z,6.89
2022-11-26T09:27:12.209Z,6.89
2022-11-26T09:29:40.989Z,6.91
2022-11-26T09:32:30.915Z,7.00
2022-11-26T09:34:59.661Z,7.00
2022-11-26T09:37:28.163Z,7.29
2022-11-26T09:39:56.937Z,7.25
2022-11-26T09:42:34.498Z,7.26
2022-11-26T09:45:10.994Z,7.60
2022-11-26T09:47:41.303Z,8.09
2022-11-26T09:50:22.668Z,8.34
2022-11-26T09:52:55.100Z,8.46
2022-11-26T09:55:26.519Z,8.96
2022-11-26T09:58:00.643Z,9.04
2022-11-26T10:00:34.485Z,9.73
2022-11-26T10:03:02.743Z,9.83
2022-11-26T10:05:54.399Z,9.63
2022-11-26T10:08:56.681Z,9.47
2022-11-26T10:11:32.686Z,9.17
2022-11-26T10:14:11.022Z,9.31
2022-11-26T10:16:43.551Z,9.22
2022-11-26T10:19:17.898Z,9.07
2022-11-26T10:22:04.807Z,8.82
2022-11-26T10:24:35.834Z,9.17
2022-11-26T10:27:08.456Z,9.89
2022-11-26T10:29:39.811Z,10.08
2022-11-26T10:32:15.549Z,10.48
2022-11-26T10:34:51.784Z,10.44
2022-11-26T10:37:23.787Z,10.72
2022-11-26T10:40:07.047Z,10.60
2022-11-26T10:42:45.930Z,10.91
2022-11-26T10:45:20.795Z,10.91
2022-11-26T10:47:49.343Z,10.92
2022-11-26T10:53:21.989Z,11.52
2022-11-26T10:55:52.360Z,11.98
2022-11-26T10:58:23.313Z,11.83
2022-11-26T11:00:59.066Z,11.84
2022-11-26T11:03:59.821Z,12.21
2022-11-26T11:06:36.267Z,11.73
2022-11-26T11:09:24.750Z,11.57
2022-11-26T11:12:16.310Z,11.50
2022-11-26T11:14:46.811Z,11.43
2022-11-26T11:17:33.105Z,11.15
2022-11-26T11:20:06.875Z,11.27
2022-11-26T11:22:35.239Z,11.00
2022-11-26T11:25:05.158Z,11.28
2022-11-26T11:27:39.404Z,11.52
2022-11-26T11:30:10.781Z,11.27
2022-11-26T11:32:40.496Z,11.22
2022-11-26T11:35:24.059Z,11.83
2022-11-26T11:37:54.050Z,11.79
2022-11-26T11:40:27.720Z,11.96
2022-11-26T11:42:57.838Z,12.21
2022-11-26T11:45:35.672Z,12.15
2022-11-26T11:48:15.959Z,12.13
2022-11-26T11:50:49.815Z,12.09
2022-11-26T11:53:30.445Z,11.55
2022-11-26T11:56:08.980Z,11.59
2022-11-26T11:58:59.187Z,11.82
2022-11-26T12:01:39.811Z,11.84
2022-11-26T12:04:22.481Z,11.60
2022-11-26T12:07:00.335Z,11.39
2022-11-26T12:09:33.082Z,11.50
2022-11-26T12:12:07.354Z,11.24
2022-11-26T12:14:39.935Z,10.84
2022-11-26T12:17:14.045Z,11.01
2022-11-26T12:19:45.605Z,10.92
2022-11-26T12:22:16.582Z,10.65
2022-11-26T12:24:48.353Z,10.70
2022-11-26T12:27:26.165Z,10.80
2022-11-26T12:29:57.754Z,10.53
2022-11-26T12:32:32.279Z,10.45
2022-11-26T12:35:05.004Z,10.43
2022-11-26T12:37:35.073Z,10.40
2022-11-26T12:40:06.840Z,10.41
2022-11-26T12:42:45.335Z,10.47
2022-11-26T12:45:20.179Z,10.43
2022-11-26T12:47:53.201Z,10.46
2022-11-26T12:50:26.709Z,10.52
2022-11-26T12:53:00.507Z,10.47
2022-11-26T12:55:32.853Z,10.26
2022-11-26T12:58:09.520Z,10.12
2022-11-26T13:00:38.078Z,10.27
2022-11-26T13:03:07.294Z,10.00
2022-11-26T13:05:44.413Z,10.07
2022-11-26T13:08:29.144Z,10.12
2022-11-26T13:11:20.672Z,9.82
2022-11-26T13:13:58.481Z,9.73
2022-11-26T13:16:34.969Z,9.42
2022-11-26T13:19:07.917Z,9.31
2022-11-26T13:21:46.328Z,9.04
2022-11-26T13:24:41.532Z,8.77
2022-11-26T13:27:22.207Z,8.47
2022-11-26T13:30:12.082Z,8.28
2022-11-26T13:33:08.018Z,8.17
2022-11-26T13:36:01.684Z,8.01
2022-11-26T13:38:36.984Z,7.98
2022-11-26T13:41:28.750Z,8.02
2022-11-26T13:44:40.767Z,7.95
2022-11-26T13:47:11.844Z,7.75
2022-11-26T13:49:42.761Z,7.71
2022-11-26T13:52:13.994Z,7.76
2022-11-26T13:54:46.221Z,7.67
2022-11-26T13:57:16.901Z,7.58
2022-11-26T13:59:50.038Z,7.80
2022-11-26T14:02:44.667Z,7.78
2022-11-26T14:05:15.042Z,7.49
2022-11-26T14:07:43.720Z,7.45
2022-11-26T14:10:42.688Z,7.49
2022-11-26T14:13:16.174Z,7.55
2022-11-26T14:15:57.046Z,7.62
2022-11-26T14:19:02.041Z,7.65
2022-11-26T14:21:31.802Z,7.65
2022-11-26T14:24:01.848Z,7.87
2022-11-26T14:26:34.591Z,7.94
2022-11-26T14:29:14.863Z,8.04
2022-11-26T14:31:50.973Z,8.11
2022-11-26T14:34:26.119Z,8.10
2022-11-26T14:36:57.471Z,8.07
2022-11-26T14:39:26.544Z,7.93
2022-11-26T14:41:59.072Z,7.79
2022-11-26T14:44:32.639Z,7.68
2022-11-26T14:47:09.689Z,7.58
2022-11-26T14:49:41.312Z,7.43
2022-11-26T14:52:18.293Z,7.28
2022-11-26T14:54:49.533Z,7.18
2022-11-26T14:57:22.687Z,7.05
2022-11-26T14:59:58.945Z,7.03
2022-11-26T15:02:29.043Z,6.85
2022-11-26T15:05:03.683Z,6.75
2022-11-26T15:07:32.777Z,6.67
2022-11-26T15:10:02.828Z,6.62
2022-11-26T15:12:33.074Z,6.63
2022-11-26T15:15:02.122Z,6.61
2022-11-26T15:17:31.804Z,6.54
2022-11-26T15:20:05.481Z,6.75
2022-11-26T15:22:35.510Z,6.87
2022-11-26T15:25:04.309Z,6.82
2022-11-26T15:27:37.388Z,6.81
2022-11-26T15:30:08.090Z,6.69
2022-11-26T15:32:36.444Z,6.83
2022-11-26T15:35:12.370Z,7.04
2022-11-26T15:37:40.793Z,6.79
2022-11-26T15:40:22.571Z,6.65
2022-11-26T15:42:53.309Z,6.80
2022-11-26T15:45:23.008Z,6.64
2022-11-26T15:47:53.788Z,6.73
2022-11-26T15:50:31.436Z,6.47
2022-11-26T15:53:02.446Z,6.36
2022-11-26T15:55:33.818Z,6.16
2022-11-26T15:58:05.921Z,5.96
2022-11-26T16:00:37.912Z,5.74
2022-11-26T16:03:43.242Z,5.54
2022-11-26T16:06:32.405Z,5.33
2022-11-26T16:09:08.075Z,5.25
2022-11-26T16:11:37.960Z,5.19
2022-11-26T16:14:30.955Z,5.07
2022-11-26T16:17:06.541Z,4.99
2022-11-26T16:19:38.353Z,4.98
2022-11-26T16:22:15.255Z,4.92
2022-11-26T16:24:43.992Z,4.94
2022-11-26T16:27:29.671Z,4.79
2022-11-26T16:29:58.637Z,4.76
2022-11-26T16:32:28.305Z,4.88
2022-11-26T16:34:56.926Z,4.79
2022-11-26T16:37:28.496Z,4.71
2022-11-26T16:40:03.988Z,4.54
2022-11-26T16:42:34.545Z,4.68
2022-11-26T16:45:04.499Z,4.68
2022-11-26T16:47:36.821Z,4.80
2022-11-26T16:50:13.324Z,5.07
2022-11-26T16:52:45.241Z,5.12
2022-11-26T16:55:15.159Z,5.42
2022-11-26T16:57:46.628Z,5.32
2022-11-26T17:00:18.172Z,5.24
2022-11-26T17:02:49.135Z,5.25
2022-11-26T17:05:18.998Z,5.13
2022-11-26T17:07:51.717Z,4.90
2022-11-26T17:10:22.403Z,4.76
2022-11-26T17:12:51.741Z,4.86
2022-11-26T17:15:20.875Z,4.79
2022-11-26T17:17:50.361Z,4.70
2022-11-26T17:20:22.659Z,4.85
2022-11-26T17:22:54.207Z,4.68
2022-11-26T17:25:27.149Z,4.79
2022-11-26T17:27:57.879Z,4.61
2022-11-26T17:30:28.552Z,4.50
2022-11-26T17:32:58.093Z,4.71
2022-11-26T17:35:27.410Z,4.31
2022-11-26T17:37:58.042Z,4.16
2022-11-26T17:40:27.639Z,4.09
2022-11-26T17:43:01.764Z,3.93
2022-11-26T17:45:30.719Z,3.99
2022-11-26T17:48:00.869Z,4.12
2022-11-26T17:50:32.799Z,4.15
2022-11-26T17:53:04.033Z,4.11
2022-11-26T17:55:33.761Z,3.77
2022-11-26T17:58:02.940Z,3.98
2022-11-26T18:00:32.274Z,4.43
2022-11-26T18:03:02.220Z,4.50
2022-11-26T18:05:31.381Z,4.50
2022-11-26T18:07:59.752Z,4.01
2022-11-26T18:10:30.634Z,3.84
2022-11-26T18:12:59.316Z,3.55
2022-11-26T18:15:30.239Z,3.39
2022-11-26T18:18:08.827Z,3.16
2022-11-26T18:20:38.068Z,2.94
2022-11-26T18:23:06.588Z,2.83
2022-11-26T18:25:37.351Z,2.82
2022-11-26T18:28:06.171Z,2.79
2022-11-26T18:30:34.938Z,2.74
2022-11-26T18:33:03.791Z,2.75
2022-11-26T18:35:33.830Z,2.82
2022-11-26T18:38:03.672Z,2.82
2022-11-26T18:40:33.922Z,2.75
2022-11-26T18:43:03.921Z,2.70
2022-11-26T18:45:34.605Z,2.60
2022-11-26T18:48:04.505Z,2.55
2022-11-26T18:50:34.565Z,2.56
2022-11-26T18:53:05.732Z,2.50
2022-11-26T18:55:35.344Z,2.47
2022-11-26T18:58:08.143Z,2.32
2022-11-26T19:00:38.572Z,2.24
2022-11-26T19:03:09.183Z,2.30
2022-11-26T19:05:39.682Z,2.36
2022-11-26T19:08:15.780Z,2.37
2022-11-26T19:10:45.918Z,2.25
2022-11-26T19:13:18.681Z,2.20
2022-11-26T19:15:48.901Z,2.12
2022-11-26T19:18:18.976Z,2.18
2022-11-26T19:20:51.517Z,2.14
2022-11-26T19:23:26.478Z,2.19
2022-11-26T19:25:56.271Z,2.15
2022-11-26T19:28:31.192Z,2.09
2022-11-26T19:31:03.085Z,1.87
2022-11-26T19:33:33.684Z,1.72
2022-11-26T19:36:06.671Z,1.70
2022-11-26T19:38:38.619Z,1.85
2022-11-26T19:41:08.303Z,2.12
2022-11-26T19:43:42.435Z,1.91
2022-11-26T19:46:15.033Z,1.86
2022-11-26T19:48:47.271Z,2.01
2022-11-26T19:51:33.650Z,1.96
2022-11-26T19:54:06.074Z,1.70
2022-11-26T19:56:36.276Z,1.57
2022-11-26T19:59:07.802Z,1.51
2022-11-26T20:01:40.434Z,1.59
2022-11-26T20:04:15.958Z,1.77
2022-11-26T20:06:46.229Z,2.12
2022-11-26T20:09:17.053Z,2.03
2022-11-26T20:11:48.601Z,1.95
2022-11-26T20:14:19.835Z,1.86
2022-11-26T20:16:49.849Z,1.69
2022-11-26T20:19:19.464Z,1.69
2022-11-26T20:21:52.736Z,1.50
2022-11-26T20:24:22.701Z,1.49
2022-11-26T20:26:54.096Z,1.59
2022-11-26T20:29:26.047Z,1.40
2022-11-26T20:31:56.849Z,1.30
2022-11-26T20:34:28.360Z,1.09
2022-11-26T20:37:02.385Z,1.02
2022-11-26T20:39:34.396Z,1.00
2022-11-26T20:42:04.457Z,0.98
2022-11-26T20:44:36.014Z,1.05
2022-11-26T20:47:07.344Z,1.07
2022-11-26T20:49:43.141Z,1.17
2022-11-26T20:52:13.197Z,1.25
2022-11-26T20:54:43.550Z,1.27
2022-11-26T20:57:18.773Z,1.02
2022-11-26T20:59:56.981Z,1.03
2022-11-26T21:02:28.070Z,0.96
2022-11-26T21:04:57.424Z,1.36
2022-11-26T21:07:27.813Z,1.32
2022-11-26T21:10:02.444Z,1.00
2022-11-26T21:12:32.247Z,1.03
2022-11-26T21:15:03.961Z,1.05
2022-11-26T21:17:33.093Z,1.02
2022-11-26T21:20:01.588Z,1.15
2022-11-26T21:22:30.873Z,1.16
2022-11-26T21:25:00.185Z,1.04
2022-11-26T21:27:29.068Z,1.01
2022-11-26T21:29:57.659Z,1.07
2022-11-26T21:32:28.736Z,1.02
2022-11-26T21:34:57.488Z,1.02
2022-11-26T21:37:26.025Z,1.15
2022-11-26T21:39:55.334Z,1.23
2022-11-26T21:42:24.256Z,1.27
2022-11-26T21:44:53.266Z,1.18
2022-11-26T21:47:22.417Z,1.05
2022-11-26T21:49:52.363Z,1.03
2022-11-26T21:52:21.434Z,1.26
2022-11-26T21:54:49.834Z,1.47
2022-11-26T21:57:19.653Z,1.42
2022-11-26T21:59:48.303Z,1.64
2022-11-26T22:02:16.804Z,1.27
2022-11-26T22:04:45.307Z,1.46
2022-11-26T22:07:15.139Z,1.33
2022-11-26T22:09:43.993Z,1.44
2022-11-26T22:12:12.781Z,1.73
2022-11-26T22:14:41.077Z,1.77
2022-11-26T22:17:09.695Z,1.76
2022-11-26T22:19:38.357Z,1.47
2022-11-26T22:22:06.871Z,1.68
2022-11-26T22:24:36.617Z,1.18
2022-11-26T22:27:05.067Z,1.02
2022-11-26T22:29:33.304Z,0.81
2022-11-26T22:32:01.599Z,0.92
2022-11-26T22:34:29.926Z,1.06
2022-11-26T22:36:58.417Z,0.83
2022-11-26T22:39:26.677Z,0.76
2022-11-26T22:41:56.411Z,0.97
2022-11-26T22:44:27.537Z,0.83
2022-11-26T22:46:55.824Z,0.59
2022-11-26T22:49:26.091Z,0.38
2022-11-26T22:51:55.402Z,0.25
2022-11-26T22:54:23.920Z,0.17
2022-11-26T22:56:52.223Z,0.17
2022-11-26T22:59:22.105Z,0.30
2022-11-26T23:01:50.478Z,0.39
2022-11-26T23:04:18.922Z,0.24
2022-11-26T23:06:47.327Z,0.09
2022-11-26T23:09:15.950Z,-0.06
2022-11-26T23:11:44.601Z,-0.11
2022-11-26T23:14:12.955Z,-0.10
2022-11-26T23:16:43.930Z,-0.13
2022-11-26T23:19:15.063Z,-0.01
2022-11-26T23:21:44.983Z,0.04
2022-11-26T23:24:14.299Z,0.36
2022-11-26T23:26:42.779Z,0.44
2022-11-26T23:29:12.037Z,0.38
2022-11-26T23:31:43.631Z,0.17
2022-11-26T23:34:12.576Z,0.04
2022-11-26T23:36:42.729Z,-0.10
2022-11-26T23:39:12.917Z,-0.09
2022-11-26T23:41:41.439Z,-0.08
2022-11-26T23:44:09.685Z,-0.09
2022-11-26T23:46:38.129Z,-0.03
2022-11-26T23:49:07.872Z,0.14
2022-11-26T23:51:36.245Z,0.10
2022-11-26T23:54:04.764Z,0.17
2022-11-26T23:56:34.800Z,0.01
2022-11-26T23:59:05.070Z,-0.07
